Main page
METAR-TAF:

METAR-TAF

Airports :

Zvartnots International Airport

Yerevan, Armenia

latitude: 40-08-50N, longitude: 044-23-45E, elevation: 865 m

Current weather observation

The report was made 40 minutes ago, at 16:30 UTC
Wind 15 kt from the North/Northeast
Temperature 28°C
Humidity 35%
Pressure 1009 hPa
Visibility 10 km or more
Few clouds at a height of 4300 ft, Cumulonimbus.

METAR: UDYZ 231630Z 03015KT 9999 FEW043CB 28/11 Q1009 NOSIG

Time: 21:10 (17:10 UTC)

Forecast

The report was made 6 hours and 10 minutes ago, at 11:00 UTC
Forecast valid from 23 at 12 UTC to 24 at 12 UTC
Wind 6 kt from the Southwest
Visibility 10 km or more
Few clouds at a height of 4000 ft
Temporary
from 23 at 12 UTC to 23 at 22 UTC
Wind 20 kt from variable directions with gusts up to 30 kt
Scattered clouds at a height of 4000 ft, Cumulonimbus.

TAF: UDYZ 231100Z 2312/2412 22006KT 9999 FEW040 TEMPO 2312/2322 VRB20G30KT SCT040CB

Weather observations and forecasts of more than 4000 airports (METAR and TAF reports).

The available stations are represented by yellow and red dots on the map.

Hover mouse over dot to see the name of the station.

Then click to see weather observations and forecasts.

To change the map : click on the green buttons with a black cross to zoom in, on the green button with a dash to zoom out, or on the green arrows for adjacent maps.


METAR-TAF: